Capitol View, South Carolina
Current Conditions -  °F | °C
As of 4:53 AM on Thursday 27 Nov 2014 (Local Time) from KCUB Reporting Station
Clear Clear  
Wind Chill: 42°   Ceiling: Unl
Heat Index: 46°   Visibility: 10mi
Dew Point: 32°   Wind: 8mph
Humidity: 58%   Direction: 240°WSW
Pressure: 30.03"   Gusts: NA
Location:  33.9488°N, 80.9462°W
Report Text: KCUB 270953Z AUTO 24007KT 10SM CLR 08/00 A3003 RMK AO2 SLP169 T00780000
Loading
Personal Weather Stations






























Interactive Weather Map New forecast layout! Learn more

10-Day Weather Forecast

Advertisements
Track Severe Weather on mobile